sensor_id;sensor_type;location;lat;lon;timestamp;pressure;altitude;pressure_sealevel;temperature;humidity
42415;BME280;28058;46.344;17.786;2023-03-14T00:01:30;118336.50;;;-144.97;60.25
42415;BME280;28058;46.344;17.786;2023-03-14T00:03:56;118336.50;;;-144.97;59.98
42415;BME280;28058;46.344;17.786;2023-03-14T00:06:23;118336.50;;;-144.97;59.44
42415;BME280;28058;46.344;17.786;2023-03-14T00:08:50;118336.50;;;-144.97;58.40
42415;BME280;28058;46.344;17.786;2023-03-14T00:11:20;118336.50;;;-144.97;57.45
42415;BME280;28058;46.344;17.786;2023-03-14T00:13:51;118336.50;;;-144.97;56.94
42415;BME280;28058;46.344;17.786;2023-03-14T00:16:18;118336.50;;;-144.97;55.75
42415;BME280;28058;46.344;17.786;2023-03-14T00:18:45;118336.50;;;-144.97;55.47
42415;BME280;28058;46.344;17.786;2023-03-14T00:21:13;118336.50;;;-144.97;54.56
42415;BME280;28058;46.344;17.786;2023-03-14T00:23:41;118336.50;;;-144.97;54.32
42415;BME280;28058;46.344;17.786;2023-03-14T00:26:14;118336.50;;;-144.97;54.73
42415;BME280;28058;46.344;17.786;2023-03-14T00:28:41;118336.50;;;-144.97;55.47
42415;BME280;28058;46.344;17.786;2023-03-14T00:31:10;118336.50;;;-144.97;53.89
42415;BME280;28058;46.344;17.786;2023-03-14T00:33:38;118336.50;;;-144.97;53.71
42415;BME280;28058;46.344;17.786;2023-03-14T00:36:11;118336.50;;;-144.97;53.67
42415;BME280;28058;46.344;17.786;2023-03-14T00:38:40;118336.50;;;-144.97;54.02
42415;BME280;28058;46.344;17.786;2023-03-14T00:41:10;118336.50;;;-144.97;53.72
42415;BME280;28058;46.344;17.786;2023-03-14T00:43:38;118336.50;;;-144.97;53.55
42415;BME280;28058;46.344;17.786;2023-03-14T00:46:06;118336.50;;;-144.97;54.08
42415;BME280;28058;46.344;17.786;2023-03-14T00:48:33;118336.50;;;-144.97;54.46
42415;BME280;28058;46.344;17.786;2023-03-14T00:51:00;118336.50;;;-144.97;53.74
42415;BME280;28058;46.344;17.786;2023-03-14T00:53:27;118336.50;;;-144.97;54.46
42415;BME280;28058;46.344;17.786;2023-03-14T00:55:54;118336.50;;;-144.97;53.65
42415;BME280;28058;46.344;17.786;2023-03-14T00:58:21;118336.50;;;-144.97;54.48
42415;BME280;28058;46.344;17.786;2023-03-14T01:00:47;118336.50;;;-144.97;54.69
42415;BME280;28058;46.344;17.786;2023-03-14T01:03:14;118336.50;;;-144.97;54.95
42415;BME280;28058;46.344;17.786;2023-03-14T01:05:42;118336.50;;;-144.97;54.20
42415;BME280;28058;46.344;17.786;2023-03-14T01:08:09;118336.50;;;-144.97;54.98
42415;BME280;28058;46.344;17.786;2023-03-14T01:10:39;118336.50;;;-144.97;54.81
42415;BME280;28058;46.344;17.786;2023-03-14T01:13:07;118336.50;;;-144.97;55.76
42415;BME280;28058;46.344;17.786;2023-03-14T01:15:35;118336.50;;;-144.97;54.51
42415;BME280;28058;46.344;17.786;2023-03-14T01:18:03;118336.50;;;-144.97;54.54
42415;BME280;28058;46.344;17.786;2023-03-14T01:20:30;118336.50;;;-144.97;53.49
42415;BME280;28058;46.344;17.786;2023-03-14T01:22:56;118336.50;;;-144.97;52.21
42415;BME280;28058;46.344;17.786;2023-03-14T01:25:23;118336.50;;;-144.97;52.67
42415;BME280;28058;46.344;17.786;2023-03-14T01:27:50;118336.50;;;-144.97;51.21
42415;BME280;28058;46.344;17.786;2023-03-14T01:30:17;118336.50;;;-144.97;50.33
42415;BME280;28058;46.344;17.786;2023-03-14T01:32:44;118336.50;;;-144.97;49.77
42415;BME280;28058;46.344;17.786;2023-03-14T01:35:11;118336.50;;;-144.97;49.82
42415;BME280;28058;46.344;17.786;2023-03-14T01:37:37;118336.50;;;-144.97;49.08
42415;BME280;28058;46.344;17.786;2023-03-14T01:40:05;118336.50;;;-144.97;49.20
42415;BME280;28058;46.344;17.786;2023-03-14T01:42:32;118336.50;;;-144.97;48.54
42415;BME280;28058;46.344;17.786;2023-03-14T01:45:02;118336.50;;;-144.97;48.99
42415;BME280;28058;46.344;17.786;2023-03-14T01:47:29;118336.50;;;-144.97;49.04
42415;BME280;28058;46.344;17.786;2023-03-14T01:50:01;118336.50;;;-144.97;49.12
42415;BME280;28058;46.344;17.786;2023-03-14T01:55:17;118336.50;;;-144.97;49.80
42415;BME280;28058;46.344;17.786;2023-03-14T01:58:00;118336.50;;;-144.97;49.56
42415;BME280;28058;46.344;17.786;2023-03-14T02:00:29;118336.50;;;-144.97;49.97
42415;BME280;28058;46.344;17.786;2023-03-14T02:03:02;118336.50;;;-144.97;49.88
42415;BME280;28058;46.344;17.786;2023-03-14T02:05:34;118336.50;;;-144.97;50.10
42415;BME280;28058;46.344;17.786;2023-03-14T02:08:04;118336.50;;;-144.97;50.79
42415;BME280;28058;46.344;17.786;2023-03-14T02:10:35;118336.50;;;-144.97;50.70
42415;BME280;28058;46.344;17.786;2023-03-14T02:13:04;118336.50;;;-144.97;50.66
42415;BME280;28058;46.344;17.786;2023-03-14T02:15:31;118336.50;;;-144.97;50.99
42415;BME280;28058;46.344;17.786;2023-03-14T02:17:59;118336.50;;;-144.97;50.99
42415;BME280;28058;46.344;17.786;2023-03-14T02:22:55;118336.50;;;-144.97;50.24
42415;BME280;28058;46.344;17.786;2023-03-14T02:25:46;118336.50;;;-144.97;50.85
42415;BME280;28058;46.344;17.786;2023-03-14T02:28:15;118336.50;;;-144.97;49.32
42415;BME280;28058;46.344;17.786;2023-03-14T02:30:43;118336.50;;;-144.97;48.99
42415;BME280;28058;46.344;17.786;2023-03-14T02:33:13;118336.50;;;-144.97;48.15
42415;BME280;28058;46.344;17.786;2023-03-14T02:35:51;118336.50;;;-144.97;48.58
42415;BME280;28058;46.344;17.786;2023-03-14T02:38:46;118336.50;;;-144.97;47.87
42415;BME280;28058;46.344;17.786;2023-03-14T02:41:15;118336.50;;;-144.97;47.52
42415;BME280;28058;46.344;17.786;2023-03-14T02:43:42;118336.50;;;-144.97;46.96
42415;BME280;28058;46.344;17.786;2023-03-14T02:46:12;118336.50;;;-144.97;46.26
42415;BME280;28058;46.344;17.786;2023-03-14T02:48:43;118336.50;;;-144.97;46.37
42415;BME280;28058;46.344;17.786;2023-03-14T02:51:13;118336.50;;;-144.97;46.99
42415;BME280;28058;46.344;17.786;2023-03-14T02:53:40;118336.50;;;-144.97;46.18
42415;BME280;28058;46.344;17.786;2023-03-14T02:56:09;118336.50;;;-144.97;45.82
42415;BME280;28058;46.344;17.786;2023-03-14T02:58:36;118336.50;;;-144.97;46.48
42415;BME280;28058;46.344;17.786;2023-03-14T03:01:03;118336.50;;;-144.97;46.65
42415;BME280;28058;46.344;17.786;2023-03-14T03:03:30;118336.50;;;-144.97;46.86
42415;BME280;28058;46.344;17.786;2023-03-14T03:05:58;118336.50;;;-144.97;46.78
42415;BME280;28058;46.344;17.786;2023-03-14T03:08:26;118336.50;;;-144.97;47.32
42415;BME280;28058;46.344;17.786;2023-03-14T03:10:53;118336.50;;;-144.97;47.09
42415;BME280;28058;46.344;17.786;2023-03-14T03:13:20;118336.50;;;-144.97;46.71
42415;BME280;28058;46.344;17.786;2023-03-14T03:15:47;118336.50;;;-144.97;46.69
42415;BME280;28058;46.344;17.786;2023-03-14T03:18:14;118336.50;;;-144.97;46.18
42415;BME280;28058;46.344;17.786;2023-03-14T03:20:41;118336.50;;;-144.97;46.03
42415;BME280;28058;46.344;17.786;2023-03-14T03:23:08;118336.50;;;-144.97;46.16
42415;BME280;28058;46.344;17.786;2023-03-14T03:25:34;118336.50;;;-144.97;46.28
42415;BME280;28058;46.344;17.786;2023-03-14T03:28:01;118336.50;;;-144.97;46.81
42415;BME280;28058;46.344;17.786;2023-03-14T03:30:28;118336.50;;;-144.97;46.14
42415;BME280;28058;46.344;17.786;2023-03-14T03:32:55;118336.50;;;-144.97;46.48
42415;BME280;28058;46.344;17.786;2023-03-14T03:35:22;118336.50;;;-144.97;45.59
42415;BME280;28058;46.344;17.786;2023-03-14T03:37:49;118336.50;;;-144.97;45.93
42415;BME280;28058;46.344;17.786;2023-03-14T03:40:16;118336.50;;;-144.97;45.98
42415;BME280;28058;46.344;17.786;2023-03-14T03:42:43;118336.50;;;-144.97;45.50
42415;BME280;28058;46.344;17.786;2023-03-14T03:45:10;118336.50;;;-144.97;45.26
42415;BME280;28058;46.344;17.786;2023-03-14T03:47:36;118336.50;;;-144.97;45.85
42415;BME280;28058;46.344;17.786;2023-03-14T03:50:03;118336.50;;;-144.97;45.35
42415;BME280;28058;46.344;17.786;2023-03-14T03:52:30;118336.50;;;-144.97;45.91
42415;BME280;28058;46.344;17.786;2023-03-14T03:54:57;118336.50;;;-144.97;45.99
42415;BME280;28058;46.344;17.786;2023-03-14T03:57:24;118336.50;;;-144.97;45.74
42415;BME280;28058;46.344;17.786;2023-03-14T03:59:51;118336.50;;;-144.97;45.82
42415;BME280;28058;46.344;17.786;2023-03-14T04:02:17;118336.50;;;-144.97;45.77
42415;BME280;28058;46.344;17.786;2023-03-14T04:04:44;118336.50;;;-144.97;46.04
42415;BME280;28058;46.344;17.786;2023-03-14T04:07:12;118336.50;;;-144.97;46.41
42415;BME280;28058;46.344;17.786;2023-03-14T04:09:40;118336.50;;;-144.97;46.74
42415;BME280;28058;46.344;17.786;2023-03-14T04:12:07;118336.50;;;-144.97;47.16
42415;BME280;28058;46.344;17.786;2023-03-14T04:14:34;118336.50;;;-144.97;46.84
42415;BME280;28058;46.344;17.786;2023-03-14T04:17:00;118336.50;;;-144.97;46.71
42415;BME280;28058;46.344;17.786;2023-03-14T04:19:27;118336.50;;;-144.97;46.71
42415;BME280;28058;46.344;17.786;2023-03-14T04:21:54;118336.50;;;-144.97;46.82
42415;BME280;28058;46.344;17.786;2023-03-14T04:24:21;118336.50;;;-144.97;46.35
42415;BME280;28058;46.344;17.786;2023-03-14T04:26:47;118336.50;;;-144.97;45.94
42415;BME280;28058;46.344;17.786;2023-03-14T04:29:14;118336.50;;;-144.97;45.87
42415;BME280;28058;46.344;17.786;2023-03-14T04:31:41;118336.50;;;-144.97;45.96
42415;BME280;28058;46.344;17.786;2023-03-14T04:34:08;118336.50;;;-144.97;45.03
42415;BME280;28058;46.344;17.786;2023-03-14T04:36:35;118336.50;;;-144.97;44.84
42415;BME280;28058;46.344;17.786;2023-03-14T04:39:05;118336.50;;;-144.97;44.62
42415;BME280;28058;46.344;17.786;2023-03-14T04:41:32;118336.50;;;-144.97;44.37
42415;BME280;28058;46.344;17.786;2023-03-14T04:43:58;118336.50;;;-144.97;43.99
42415;BME280;28058;46.344;17.786;2023-03-14T04:46:25;118336.50;;;-144.97;44.23
42415;BME280;28058;46.344;17.786;2023-03-14T04:48:52;118336.50;;;-144.97;43.35
42415;BME280;28058;46.344;17.786;2023-03-14T04:51:19;118336.50;;;-144.97;43.68
42415;BME280;28058;46.344;17.786;2023-03-14T04:53:46;118336.50;;;-144.97;42.99
42415;BME280;28058;46.344;17.786;2023-03-14T04:56:12;118336.50;;;-144.97;42.85
42415;BME280;28058;46.344;17.786;2023-03-14T04:58:39;118336.50;;;-144.97;42.69
42415;BME280;28058;46.344;17.786;2023-03-14T05:01:06;118336.50;;;-144.97;42.43
42415;BME280;28058;46.344;17.786;2023-03-14T05:03:33;118336.50;;;-144.97;42.17
42415;BME280;28058;46.344;17.786;2023-03-14T05:06:02;118336.50;;;-144.97;41.90
42415;BME280;28058;46.344;17.786;2023-03-14T05:08:29;118336.50;;;-144.97;42.16
42415;BME280;28058;46.344;17.786;2023-03-14T05:10:57;118336.50;;;-144.97;41.93
42415;BME280;28058;46.344;17.786;2023-03-14T05:13:24;118336.50;;;-144.97;42.59
42415;BME280;28058;46.344;17.786;2023-03-14T05:15:51;118336.50;;;-144.97;42.24
42415;BME280;28058;46.344;17.786;2023-03-14T05:18:18;118336.50;;;-144.97;42.06
42415;BME280;28058;46.344;17.786;2023-03-14T05:20:45;118336.50;;;-144.97;41.69
42415;BME280;28058;46.344;17.786;2023-03-14T05:23:12;118336.50;;;-144.97;41.58
42415;BME280;28058;46.344;17.786;2023-03-14T05:25:43;118336.50;;;-144.97;41.46
42415;BME280;28058;46.344;17.786;2023-03-14T05:28:10;118336.50;;;-144.97;41.88
42415;BME280;28058;46.344;17.786;2023-03-14T05:30:37;118336.50;;;-144.97;41.44
42415;BME280;28058;46.344;17.786;2023-03-14T05:33:04;118336.50;;;-144.97;41.21
42415;BME280;28058;46.344;17.786;2023-03-14T05:35:31;118336.50;;;-144.97;41.00
42415;BME280;28058;46.344;17.786;2023-03-14T05:37:58;118336.50;;;-144.97;40.90
42415;BME280;28058;46.344;17.786;2023-03-14T05:40:25;118336.50;;;-144.97;41.18
42415;BME280;28058;46.344;17.786;2023-03-14T05:42:52;118336.50;;;-144.97;41.71
42415;BME280;28058;46.344;17.786;2023-03-14T05:45:19;118336.50;;;-144.97;41.66
42415;BME280;28058;46.344;17.786;2023-03-14T05:47:46;118336.50;;;-144.97;41.76
42415;BME280;28058;46.344;17.786;2023-03-14T05:50:13;118336.50;;;-144.97;41.82
42415;BME280;28058;46.344;17.786;2023-03-14T05:52:40;118336.50;;;-144.97;41.74
42415;BME280;28058;46.344;17.786;2023-03-14T05:55:07;118336.50;;;-144.97;41.49
42415;BME280;28058;46.344;17.786;2023-03-14T05:57:34;118336.50;;;-144.97;41.21
42415;BME280;28058;46.344;17.786;2023-03-14T06:00:00;118336.50;;;-144.97;41.42
42415;BME280;28058;46.344;17.786;2023-03-14T06:02:27;118336.50;;;-144.97;41.30
42415;BME280;28058;46.344;17.786;2023-03-14T06:04:54;118336.50;;;-144.97;41.38
42415;BME280;28058;46.344;17.786;2023-03-14T06:07:21;118336.50;;;-144.97;41.48
42415;BME280;28058;46.344;17.786;2023-03-14T06:09:48;118336.50;;;-144.97;41.51
42415;BME280;28058;46.344;17.786;2023-03-14T06:12:15;118336.50;;;-144.97;41.36
42415;BME280;28058;46.344;17.786;2023-03-14T06:14:41;118336.50;;;-144.97;41.34
42415;BME280;28058;46.344;17.786;2023-03-14T06:17:08;118336.50;;;-144.97;41.95
42415;BME280;28058;46.344;17.786;2023-03-14T06:19:35;118336.50;;;-144.97;41.15
42415;BME280;28058;46.344;17.786;2023-03-14T06:22:02;118336.50;;;-144.97;40.75
42415;BME280;28058;46.344;17.786;2023-03-14T06:24:28;118336.50;;;-144.97;41.09
42415;BME280;28058;46.344;17.786;2023-03-14T06:26:55;118336.50;;;-144.97;40.72
42415;BME280;28058;46.344;17.786;2023-03-14T06:29:22;118336.50;;;-144.97;40.76
42415;BME280;28058;46.344;17.786;2023-03-14T06:31:49;118336.50;;;-144.97;40.54
42415;BME280;28058;46.344;17.786;2023-03-14T06:34:16;118336.50;;;-144.97;40.56
42415;BME280;28058;46.344;17.786;2023-03-14T06:36:42;118336.50;;;-144.97;40.57
42415;BME280;28058;46.344;17.786;2023-03-14T06:39:09;118336.50;;;-144.97;40.83
42415;BME280;28058;46.344;17.786;2023-03-14T06:41:36;118336.50;;;-144.97;40.41
42415;BME280;28058;46.344;17.786;2023-03-14T06:44:03;118336.50;;;-144.97;40.36
42415;BME280;28058;46.344;17.786;2023-03-14T06:46:30;118336.50;;;-144.97;40.06
42415;BME280;28058;46.344;17.786;2023-03-14T06:48:57;118336.50;;;-144.97;40.12
42415;BME280;28058;46.344;17.786;2023-03-14T06:51:24;118336.50;;;-144.97;40.02
42415;BME280;28058;46.344;17.786;2023-03-14T06:53:50;118336.50;;;-144.97;40.51
42415;BME280;28058;46.344;17.786;2023-03-14T06:56:17;118336.50;;;-144.97;40.38
42415;BME280;28058;46.344;17.786;2023-03-14T06:58:44;118336.50;;;-144.97;39.94
42415;BME280;28058;46.344;17.786;2023-03-14T07:01:20;118336.50;;;-144.97;39.73
42415;BME280;28058;46.344;17.786;2023-03-14T07:03:47;118336.50;;;-144.97;40.03
42415;BME280;28058;46.344;17.786;2023-03-14T07:06:14;118336.50;;;-144.97;40.25
42415;BME280;28058;46.344;17.786;2023-03-14T07:08:41;118336.50;;;-144.97;40.38
42415;BME280;28058;46.344;17.786;2023-03-14T07:11:08;118336.50;;;-144.97;40.05
42415;BME280;28058;46.344;17.786;2023-03-14T07:13:38;118336.50;;;-144.97;40.17
42415;BME280;28058;46.344;17.786;2023-03-14T07:16:06;118336.50;;;-144.97;39.86
42415;BME280;28058;46.344;17.786;2023-03-14T07:18:33;118336.50;;;-144.97;40.01
42415;BME280;28058;46.344;17.786;2023-03-14T07:21:00;118336.50;;;-144.97;40.18
42415;BME280;28058;46.344;17.786;2023-03-14T07:23:27;118336.50;;;-144.97;40.06
42415;BME280;28058;46.344;17.786;2023-03-14T07:25:53;118336.50;;;-144.97;39.71
42415;BME280;28058;46.344;17.786;2023-03-14T07:28:20;118336.50;;;-144.97;39.70
42415;BME280;28058;46.344;17.786;2023-03-14T07:30:47;118336.50;;;-144.97;39.73
42415;BME280;28058;46.344;17.786;2023-03-14T07:33:15;118336.50;;;-144.97;38.57
42415;BME280;28058;46.344;17.786;2023-03-14T07:35:42;118336.50;;;-144.97;38.09
42415;BME280;28058;46.344;17.786;2023-03-14T07:38:09;118336.50;;;-144.97;37.92
42415;BME280;28058;46.344;17.786;2023-03-14T07:40:35;118336.50;;;-144.97;37.52
42415;BME280;28058;46.344;17.786;2023-03-14T07:43:02;118336.50;;;-144.97;37.11
42415;BME280;28058;46.344;17.786;2023-03-14T07:45:29;118336.50;;;-144.97;36.81
42415;BME280;28058;46.344;17.786;2023-03-14T07:47:56;118336.50;;;-144.97;36.04
42415;BME280;28058;46.344;17.786;2023-03-14T07:50:25;118336.50;;;-144.97;35.14
42415;BME280;28058;46.344;17.786;2023-03-14T07:52:53;118336.50;;;-144.97;33.70
42415;BME280;28058;46.344;17.786;2023-03-14T07:55:20;118336.50;;;-144.97;34.10
42415;BME280;28058;46.344;17.786;2023-03-14T07:57:47;118336.50;;;-144.97;34.10
42415;BME280;28058;46.344;17.786;2023-03-14T08:00:14;118336.50;;;-144.97;33.60
42415;BME280;28058;46.344;17.786;2023-03-14T08:02:41;118336.50;;;-144.97;32.97
42415;BME280;28058;46.344;17.786;2023-03-14T08:05:09;118336.50;;;-144.97;32.42
42415;BME280;28058;46.344;17.786;2023-03-14T08:07:36;118336.50;;;-144.97;32.97
42415;BME280;28058;46.344;17.786;2023-03-14T08:10:04;118336.50;;;-144.97;32.49
42415;BME280;28058;46.344;17.786;2023-03-14T08:12:31;118336.50;;;-144.97;32.61
42415;BME280;28058;46.344;17.786;2023-03-14T08:14:58;118336.50;;;-144.97;32.32
42415;BME280;28058;46.344;17.786;2023-03-14T08:17:26;118336.50;;;-144.97;31.68
42415;BME280;28058;46.344;17.786;2023-03-14T08:19:54;118336.50;;;-144.97;31.82
42415;BME280;28058;46.344;17.786;2023-03-14T08:22:21;118336.50;;;-144.97;31.71
42415;BME280;28058;46.344;17.786;2023-03-14T08:24:48;118336.50;;;-144.97;30.35
42415;BME280;28058;46.344;17.786;2023-03-14T08:27:14;118336.50;;;-144.97;31.12
42415;BME280;28058;46.344;17.786;2023-03-14T08:29:41;118336.50;;;-144.97;30.44
42415;BME280;28058;46.344;17.786;2023-03-14T08:32:08;118336.50;;;-144.97;30.36
42415;BME280;28058;46.344;17.786;2023-03-14T08:34:35;118336.50;;;-144.97;30.27
42415;BME280;28058;46.344;17.786;2023-03-14T08:37:02;118336.50;;;-144.97;30.61
42415;BME280;28058;46.344;17.786;2023-03-14T08:39:36;118336.50;;;-144.97;30.72
42415;BME280;28058;46.344;17.786;2023-03-14T08:42:03;118336.50;;;-144.97;30.42
42415;BME280;28058;46.344;17.786;2023-03-14T08:44:30;118336.50;;;-144.97;30.58
42415;BME280;28058;46.344;17.786;2023-03-14T08:46:57;118336.50;;;-144.97;30.44
42415;BME280;28058;46.344;17.786;2023-03-14T08:49:24;118336.50;;;-144.97;29.92
42415;BME280;28058;46.344;17.786;2023-03-14T08:51:51;118336.50;;;-144.97;29.60
42415;BME280;28058;46.344;17.786;2023-03-14T08:54:17;118336.50;;;-144.97;29.60
42415;BME280;28058;46.344;17.786;2023-03-14T08:56:45;118336.50;;;-144.97;30.06
42415;BME280;28058;46.344;17.786;2023-03-14T08:59:12;118336.50;;;-144.97;29.55
42415;BME280;28058;46.344;17.786;2023-03-14T09:01:39;118336.50;;;-144.97;29.03
42415;BME280;28058;46.344;17.786;2023-03-14T09:04:06;118336.50;;;-144.97;29.15
42415;BME280;28058;46.344;17.786;2023-03-14T09:06:33;118336.50;;;-144.97;29.33
42415;BME280;28058;46.344;17.786;2023-03-14T09:09:00;118336.50;;;-144.97;29.03
42415;BME280;28058;46.344;17.786;2023-03-14T09:11:27;118336.50;;;-144.97;30.11
42415;BME280;28058;46.344;17.786;2023-03-14T09:13:54;118336.50;;;-144.97;29.62
42415;BME280;28058;46.344;17.786;2023-03-14T09:16:21;118336.50;;;-144.97;29.98
42415;BME280;28058;46.344;17.786;2023-03-14T09:18:48;118336.50;;;-144.97;30.09
42415;BME280;28058;46.344;17.786;2023-03-14T09:21:15;118336.50;;;-144.97;29.42
42415;BME280;28058;46.344;17.786;2023-03-14T09:23:42;118336.50;;;-144.97;29.46
42415;BME280;28058;46.344;17.786;2023-03-14T09:26:11;118336.50;;;-144.97;29.65
42415;BME280;28058;46.344;17.786;2023-03-14T09:28:38;118336.50;;;-144.97;29.54
42415;BME280;28058;46.344;17.786;2023-03-14T09:31:10;118336.50;;;-144.97;30.73
42415;BME280;28058;46.344;17.786;2023-03-14T09:33:37;118336.50;;;-144.97;30.67
42415;BME280;28058;46.344;17.786;2023-03-14T09:36:06;118336.50;;;-144.97;30.68
42415;BME280;28058;46.344;17.786;2023-03-14T09:38:34;118336.50;;;-144.97;30.72
42415;BME280;28058;46.344;17.786;2023-03-14T09:41:03;118336.50;;;-144.97;30.84
42415;BME280;28058;46.344;17.786;2023-03-14T09:43:39;118336.50;;;-144.97;30.83
42415;BME280;28058;46.344;17.786;2023-03-14T09:46:09;118336.50;;;-144.97;30.86
42415;BME280;28058;46.344;17.786;2023-03-14T09:48:37;118336.50;;;-144.97;30.43
42415;BME280;28058;46.344;17.786;2023-03-14T09:51:10;118336.50;;;-144.97;31.22
42415;BME280;28058;46.344;17.786;2023-03-14T09:53:45;118336.50;;;-144.97;30.64
42415;BME280;28058;46.344;17.786;2023-03-14T09:56:19;118336.50;;;-144.97;30.81
42415;BME280;28058;46.344;17.786;2023-03-14T09:58:56;118336.50;;;-144.97;31.00
42415;BME280;28058;46.344;17.786;2023-03-14T10:01:29;118336.50;;;-144.97;30.38
42415;BME280;28058;46.344;17.786;2023-03-14T10:04:04;118336.50;;;-144.97;30.45
42415;BME280;28058;46.344;17.786;2023-03-14T10:06:32;118336.50;;;-144.97;30.92
42415;BME280;28058;46.344;17.786;2023-03-14T10:08:58;118336.50;;;-144.97;30.56
42415;BME280;28058;46.344;17.786;2023-03-14T10:11:26;118336.50;;;-144.97;30.81
42415;BME280;28058;46.344;17.786;2023-03-14T10:14:11;118336.50;;;-144.97;30.78
42415;BME280;28058;46.344;17.786;2023-03-14T10:16:44;118336.50;;;-144.97;30.96
42415;BME280;28058;46.344;17.786;2023-03-14T10:19:14;118336.50;;;-144.97;30.50
42415;BME280;28058;46.344;17.786;2023-03-14T10:21:50;118336.50;;;-144.97;31.03
42415;BME280;28058;46.344;17.786;2023-03-14T10:24:21;118336.50;;;-144.97;30.53
42415;BME280;28058;46.344;17.786;2023-03-14T10:27:03;118336.50;;;-144.97;30.62
42415;BME280;28058;46.344;17.786;2023-03-14T10:29:34;118336.50;;;-144.97;30.88
42415;BME280;28058;46.344;17.786;2023-03-14T10:32:05;118336.50;;;-144.97;31.58
42415;BME280;28058;46.344;17.786;2023-03-14T10:34:36;118336.50;;;-144.97;31.31
42415;BME280;28058;46.344;17.786;2023-03-14T10:39:38;118336.50;;;-144.97;31.35
42415;BME280;28058;46.344;17.786;2023-03-14T10:42:33;118336.50;;;-144.97;31.24
42415;BME280;28058;46.344;17.786;2023-03-14T10:47:51;118336.50;;;-144.97;31.09
42415;BME280;28058;46.344;17.786;2023-03-14T10:50:28;118336.50;;;-144.97;31.59
42415;BME280;28058;46.344;17.786;2023-03-14T10:52:56;118336.50;;;-144.97;31.34
42415;BME280;28058;46.344;17.786;2023-03-14T10:55:39;118336.50;;;-144.97;30.74
42415;BME280;28058;46.344;17.786;2023-03-14T10:58:27;118336.50;;;-144.97;30.48
42415;BME280;28058;46.344;17.786;2023-03-14T11:03:43;118336.50;;;-144.97;30.76
42415;BME280;28058;46.344;17.786;2023-03-14T11:06:20;118336.50;;;-144.97;30.47
42415;BME280;28058;46.344;17.786;2023-03-14T11:08:52;118336.50;;;-144.97;30.67
42415;BME280;28058;46.344;17.786;2023-03-14T11:11:28;118336.50;;;-144.97;30.27
42415;BME280;28058;46.344;17.786;2023-03-14T11:14:27;118336.50;;;-144.97;30.08
42415;BME280;28058;46.344;17.786;2023-03-14T11:17:02;118336.50;;;-144.97;30.68
42415;BME280;28058;46.344;17.786;2023-03-14T11:22:16;118336.50;;;-144.97;30.53
42415;BME280;28058;46.344;17.786;2023-03-14T11:24:55;118336.50;;;-144.97;30.94
42415;BME280;28058;46.344;17.786;2023-03-14T11:30:42;118336.50;;;-144.97;30.27
42415;BME280;28058;46.344;17.786;2023-03-14T11:33:21;118336.50;;;-144.97;30.10
42415;BME280;28058;46.344;17.786;2023-03-14T11:36:04;118336.50;;;-144.97;30.27
42415;BME280;28058;46.344;17.786;2023-03-14T11:43:56;118336.50;;;-144.97;30.73
42415;BME280;28058;46.344;17.786;2023-03-14T11:49:05;118336.50;;;-144.97;30.40
42415;BME280;28058;46.344;17.786;2023-03-14T11:51:38;118336.50;;;-144.97;30.36
42415;BME280;28058;46.344;17.786;2023-03-14T11:57:03;118336.50;;;-144.97;30.41
42415;BME280;28058;46.344;17.786;2023-03-14T11:59:45;118336.50;;;-144.97;29.51
42415;BME280;28058;46.344;17.786;2023-03-14T12:10:49;118336.50;;;-144.97;29.04
42415;BME280;28058;46.344;17.786;2023-03-14T12:13:17;118336.50;;;-144.97;28.63
42415;BME280;28058;46.344;17.786;2023-03-14T12:15:50;118336.50;;;-144.97;28.78
42415;BME280;28058;46.344;17.786;2023-03-14T12:18:30;118336.50;;;-144.97;27.78
42415;BME280;28058;46.344;17.786;2023-03-14T12:21:03;118336.50;;;-144.97;28.52
42415;BME280;28058;46.344;17.786;2023-03-14T12:23:50;118336.50;;;-144.97;27.99
42415;BME280;28058;46.344;17.786;2023-03-14T12:26:26;118336.50;;;-144.97;28.57
42415;BME280;28058;46.344;17.786;2023-03-14T12:39:21;118336.50;;;-144.97;28.40
42415;BME280;28058;46.344;17.786;2023-03-14T12:42:14;118336.50;;;-144.97;28.18
42415;BME280;28058;46.344;17.786;2023-03-14T12:44:48;118336.50;;;-144.97;28.22
42415;BME280;28058;46.344;17.786;2023-03-14T12:49:51;118336.50;;;-144.97;28.27
42415;BME280;28058;46.344;17.786;2023-03-14T12:52:39;118336.50;;;-144.97;28.14
42415;BME280;28058;46.344;17.786;2023-03-14T13:00:34;118336.50;;;-144.97;28.29
42415;BME280;28058;46.344;17.786;2023-03-14T13:03:21;118336.50;;;-144.97;28.37
42415;BME280;28058;46.344;17.786;2023-03-14T13:05:54;118336.50;;;-144.97;28.14
42415;BME280;28058;46.344;17.786;2023-03-14T13:08:42;118336.50;;;-144.97;27.31
42415;BME280;28058;46.344;17.786;2023-03-14T13:11:18;118336.50;;;-144.97;27.67
42415;BME280;28058;46.344;17.786;2023-03-14T13:13:48;118336.50;;;-144.97;28.28
42415;BME280;28058;46.344;17.786;2023-03-14T13:16:18;118336.50;;;-144.97;28.10
42415;BME280;28058;46.344;17.786;2023-03-14T13:18:50;118336.50;;;-144.97;27.99
42415;BME280;28058;46.344;17.786;2023-03-14T13:21:26;118336.50;;;-144.97;28.40
42415;BME280;28058;46.344;17.786;2023-03-14T13:23:58;118336.50;;;-144.97;28.59
42415;BME280;28058;46.344;17.786;2023-03-14T13:26:32;118336.50;;;-144.97;28.71
42415;BME280;28058;46.344;17.786;2023-03-14T13:29:00;118336.50;;;-144.97;28.67